sensor_id;sensor_type;location;lat;lon;timestamp;temperature;humidity
39825;DHT22;25503;52.532;13.640;2023-02-01T00:01:26;4.60;99.90
39825;DHT22;25503;52.532;13.640;2023-02-01T00:03:51;4.60;99.90
39825;DHT22;25503;52.532;13.640;2023-02-01T00:06:17;4.70;99.90
39825;DHT22;25503;52.532;13.640;2023-02-01T00:08:42;4.70;99.90
39825;DHT22;25503;52.532;13.640;2023-02-01T00:11:10;4.70;99.90
39825;DHT22;25503;52.532;13.640;2023-02-01T00:13:39;4.70;99.90
39825;DHT22;25503;52.532;13.640;2023-02-01T00:16:07;4.70;99.90
39825;DHT22;25503;52.532;13.640;2023-02-01T00:18:33;4.80;99.90
39825;DHT22;25503;52.532;13.640;2023-02-01T00:20:59;4.80;99.90
39825;DHT22;25503;52.532;13.640;2023-02-01T00:23:25;4.80;99.90
39825;DHT22;25503;52.532;13.640;2023-02-01T00:25:51;4.80;99.90
39825;DHT22;25503;52.532;13.640;2023-02-01T00:28:16;4.70;99.90
39825;DHT22;25503;52.532;13.640;2023-02-01T00:30:42;4.70;99.90
39825;DHT22;25503;52.532;13.640;2023-02-01T00:33:07;4.70;99.90
39825;DHT22;25503;52.532;13.640;2023-02-01T00:35:36;4.60;99.90
39825;DHT22;25503;52.532;13.640;2023-02-01T00:38:02;4.60;99.90
39825;DHT22;25503;52.532;13.640;2023-02-01T00:40:28;4.60;99.90
39825;DHT22;25503;52.532;13.640;2023-02-01T00:42:53;4.60;99.90
39825;DHT22;25503;52.532;13.640;2023-02-01T00:45:19;4.60;99.90
39825;DHT22;25503;52.532;13.640;2023-02-01T00:47:45;4.60;99.90
39825;DHT22;25503;52.532;13.640;2023-02-01T00:50:11;4.70;99.90
39825;DHT22;25503;52.532;13.640;2023-02-01T00:52:36;4.70;99.90
39825;DHT22;25503;52.532;13.640;2023-02-01T00:55:02;4.70;99.90
39825;DHT22;25503;52.532;13.640;2023-02-01T00:57:28;4.70;99.90
39825;DHT22;25503;52.532;13.640;2023-02-01T00:59:54;4.70;99.90
39825;DHT22;25503;52.532;13.640;2023-02-01T01:02:19;4.70;99.90
39825;DHT22;25503;52.532;13.640;2023-02-01T01:04:45;4.70;99.90
39825;DHT22;25503;52.532;13.640;2023-02-01T01:07:10;4.70;99.90
39825;DHT22;25503;52.532;13.640;2023-02-01T01:09:36;4.80;99.90
39825;DHT22;25503;52.532;13.640;2023-02-01T01:12:01;4.80;99.90
39825;DHT22;25503;52.532;13.640;2023-02-01T01:14:29;4.80;99.90
39825;DHT22;25503;52.532;13.640;2023-02-01T01:16:54;4.80;99.90
39825;DHT22;25503;52.532;13.640;2023-02-01T01:19:20;4.80;99.90
39825;DHT22;25503;52.532;13.640;2023-02-01T01:21:46;4.80;99.90
39825;DHT22;25503;52.532;13.640;2023-02-01T01:24:11;4.80;99.90
39825;DHT22;25503;52.532;13.640;2023-02-01T01:26:37;4.80;99.90
39825;DHT22;25503;52.532;13.640;2023-02-01T01:29:03;4.80;99.90
39825;DHT22;25503;52.532;13.640;2023-02-01T01:31:30;4.80;99.90
39825;DHT22;25503;52.532;13.640;2023-02-01T01:33:57;4.80;99.90
39825;DHT22;25503;52.532;13.640;2023-02-01T01:36:24;4.80;99.90
39825;DHT22;25503;52.532;13.640;2023-02-01T01:38:51;4.80;99.90
39825;DHT22;25503;52.532;13.640;2023-02-01T01:41:20;4.80;99.90
39825;DHT22;25503;52.532;13.640;2023-02-01T01:44:04;4.80;99.90
39825;DHT22;25503;52.532;13.640;2023-02-01T01:46:36;4.80;99.90
39825;DHT22;25503;52.532;13.640;2023-02-01T01:51:44;4.80;99.90
39825;DHT22;25503;52.532;13.640;2023-02-01T01:54:16;4.70;99.90
39825;DHT22;25503;52.532;13.640;2023-02-01T01:56:44;4.70;99.90
39825;DHT22;25503;52.532;13.640;2023-02-01T01:59:11;4.70;99.90
39825;DHT22;25503;52.532;13.640;2023-02-01T02:01:38;4.70;99.90
39825;DHT22;25503;52.532;13.640;2023-02-01T02:04:04;4.70;99.90
39825;DHT22;25503;52.532;13.640;2023-02-01T02:06:50;4.70;99.90
39825;DHT22;25503;52.532;13.640;2023-02-01T02:09:21;4.70;99.90
39825;DHT22;25503;52.532;13.640;2023-02-01T02:11:46;4.70;99.90
39825;DHT22;25503;52.532;13.640;2023-02-01T02:14:14;4.70;99.90
39825;DHT22;25503;52.532;13.640;2023-02-01T02:20:04;4.80;99.90
39825;DHT22;25503;52.532;13.640;2023-02-01T02:37:59;4.80;99.90
39825;DHT22;25503;52.532;13.640;2023-02-01T02:40:37;4.80;99.90
39825;DHT22;25503;52.532;13.640;2023-02-01T02:43:25;4.80;99.90
39825;DHT22;25503;52.532;13.640;2023-02-01T02:46:32;4.80;99.90
39825;DHT22;25503;52.532;13.640;2023-02-01T02:51:53;4.70;99.90
39825;DHT22;25503;52.532;13.640;2023-02-01T02:54:46;4.70;99.90
39825;DHT22;25503;52.532;13.640;2023-02-01T02:57:23;4.80;99.90
39825;DHT22;25503;52.532;13.640;2023-02-01T03:00:12;4.80;99.90
39825;DHT22;25503;52.532;13.640;2023-02-01T03:02:58;4.80;99.90
39825;DHT22;25503;52.532;13.640;2023-02-01T03:05:45;4.80;99.90
39825;DHT22;25503;52.532;13.640;2023-02-01T03:08:16;4.70;99.90
39825;DHT22;25503;52.532;13.640;2023-02-01T03:10:51;4.80;99.90
39825;DHT22;25503;52.532;13.640;2023-02-01T03:18:36;4.80;99.90
39825;DHT22;25503;52.532;13.640;2023-02-01T03:21:09;4.80;99.90
39825;DHT22;25503;52.532;13.640;2023-02-01T03:23:36;4.80;99.90
39825;DHT22;25503;52.532;13.640;2023-02-01T03:26:06;4.80;99.90
39825;DHT22;25503;52.532;13.640;2023-02-01T03:28:34;4.80;99.90
39825;DHT22;25503;52.532;13.640;2023-02-01T03:31:01;4.80;99.90
39825;DHT22;25503;52.532;13.640;2023-02-01T03:33:30;4.80;99.90
39825;DHT22;25503;52.532;13.640;2023-02-01T03:36:15;4.80;99.90
39825;DHT22;25503;52.532;13.640;2023-02-01T03:39:06;4.90;99.90
39825;DHT22;25503;52.532;13.640;2023-02-01T03:41:41;4.80;99.90
39825;DHT22;25503;52.532;13.640;2023-02-01T03:44:27;4.90;99.90
39825;DHT22;25503;52.532;13.640;2023-02-01T03:47:23;4.90;99.90
39825;DHT22;25503;52.532;13.640;2023-02-01T03:49:54;4.90;99.90
39825;DHT22;25503;52.532;13.640;2023-02-01T03:55:08;4.80;99.90
39825;DHT22;25503;52.532;13.640;2023-02-01T03:57:38;4.80;99.90
39825;DHT22;25503;52.532;13.640;2023-02-01T04:00:17;4.80;99.90
39825;DHT22;25503;52.532;13.640;2023-02-01T04:02:43;4.80;99.90
39825;DHT22;25503;52.532;13.640;2023-02-01T04:05:09;4.90;99.90
39825;DHT22;25503;52.532;13.640;2023-02-01T04:07:34;4.90;99.90
39825;DHT22;25503;52.532;13.640;2023-02-01T04:10:00;4.90;99.90
39825;DHT22;25503;52.532;13.640;2023-02-01T04:12:26;4.90;99.90
39825;DHT22;25503;52.532;13.640;2023-02-01T04:14:51;4.90;99.90
39825;DHT22;25503;52.532;13.640;2023-02-01T04:17:17;5.00;99.90
39825;DHT22;25503;52.532;13.640;2023-02-01T04:19:42;4.90;99.90
39825;DHT22;25503;52.532;13.640;2023-02-01T04:22:08;5.00;99.90
39825;DHT22;25503;52.532;13.640;2023-02-01T04:24:33;5.00;99.90
39825;DHT22;25503;52.532;13.640;2023-02-01T04:26:59;5.00;99.90
39825;DHT22;25503;52.532;13.640;2023-02-01T04:29:25;5.00;99.90
39825;DHT22;25503;52.532;13.640;2023-02-01T04:31:50;5.00;99.90
39825;DHT22;25503;52.532;13.640;2023-02-01T04:34:16;5.10;99.90
39825;DHT22;25503;52.532;13.640;2023-02-01T04:36:41;5.10;99.90
39825;DHT22;25503;52.532;13.640;2023-02-01T04:39:09;5.10;99.90
39825;DHT22;25503;52.532;13.640;2023-02-01T04:41:35;5.20;99.90
39825;DHT22;25503;52.532;13.640;2023-02-01T04:44:00;5.20;99.90
39825;DHT22;25503;52.532;13.640;2023-02-01T04:46:26;5.20;99.90
39825;DHT22;25503;52.532;13.640;2023-02-01T04:48:52;5.20;99.90
39825;DHT22;25503;52.532;13.640;2023-02-01T04:51:17;5.30;99.90
39825;DHT22;25503;52.532;13.640;2023-02-01T04:53:44;5.20;99.90
39825;DHT22;25503;52.532;13.640;2023-02-01T04:56:10;5.20;99.90
39825;DHT22;25503;52.532;13.640;2023-02-01T04:58:35;5.30;99.90
39825;DHT22;25503;52.532;13.640;2023-02-01T05:01:05;5.30;99.90
39825;DHT22;25503;52.532;13.640;2023-02-01T05:03:32;5.30;99.90
39825;DHT22;25503;52.532;13.640;2023-02-01T05:05:58;5.40;99.90
39825;DHT22;25503;52.532;13.640;2023-02-01T05:08:24;5.30;99.90
39825;DHT22;25503;52.532;13.640;2023-02-01T05:10:51;5.30;99.90
39825;DHT22;25503;52.532;13.640;2023-02-01T05:13:17;5.30;99.90
39825;DHT22;25503;52.532;13.640;2023-02-01T05:16:01;5.40;99.90
39825;DHT22;25503;52.532;13.640;2023-02-01T05:18:26;5.40;99.90
39825;DHT22;25503;52.532;13.640;2023-02-01T05:20:52;5.40;99.90
39825;DHT22;25503;52.532;13.640;2023-02-01T05:23:18;5.40;99.90
39825;DHT22;25503;52.532;13.640;2023-02-01T05:25:43;5.40;99.90
39825;DHT22;25503;52.532;13.640;2023-02-01T05:28:09;5.40;99.90
39825;DHT22;25503;52.532;13.640;2023-02-01T05:30:34;5.40;99.90
39825;DHT22;25503;52.532;13.640;2023-02-01T05:33:01;5.40;99.90
39825;DHT22;25503;52.532;13.640;2023-02-01T05:35:27;5.50;99.90
39825;DHT22;25503;52.532;13.640;2023-02-01T05:37:53;5.50;99.90
39825;DHT22;25503;52.532;13.640;2023-02-01T05:40:18;5.50;99.90
39825;DHT22;25503;52.532;13.640;2023-02-01T05:42:44;5.60;99.90
39825;DHT22;25503;52.532;13.640;2023-02-01T05:45:10;5.60;99.90
39825;DHT22;25503;52.532;13.640;2023-02-01T05:47:35;5.60;99.90
39825;DHT22;25503;52.532;13.640;2023-02-01T05:50:01;5.50;99.90
39825;DHT22;25503;52.532;13.640;2023-02-01T05:52:27;5.50;99.90
39825;DHT22;25503;52.532;13.640;2023-02-01T05:54:53;5.60;99.90
39825;DHT22;25503;52.532;13.640;2023-02-01T05:57:18;5.60;99.90
39825;DHT22;25503;52.532;13.640;2023-02-01T05:59:44;5.60;99.90
39825;DHT22;25503;52.532;13.640;2023-02-01T06:02:11;5.60;99.90
39825;DHT22;25503;52.532;13.640;2023-02-01T06:04:37;5.60;99.90
39825;DHT22;25503;52.532;13.640;2023-02-01T06:07:04;5.60;99.90
39825;DHT22;25503;52.532;13.640;2023-02-01T06:09:31;5.60;99.90
39825;DHT22;25503;52.532;13.640;2023-02-01T06:11:56;5.70;99.90
39825;DHT22;25503;52.532;13.640;2023-02-01T06:14:23;5.70;99.90
39825;DHT22;25503;52.532;13.640;2023-02-01T06:16:49;5.70;99.90
39825;DHT22;25503;52.532;13.640;2023-02-01T06:19:15;5.70;99.90
39825;DHT22;25503;52.532;13.640;2023-02-01T06:21:43;5.60;99.90
39825;DHT22;25503;52.532;13.640;2023-02-01T06:24:09;5.70;99.90
39825;DHT22;25503;52.532;13.640;2023-02-01T06:26:36;5.70;99.90
39825;DHT22;25503;52.532;13.640;2023-02-01T06:29:01;5.70;99.90
39825;DHT22;25503;52.532;13.640;2023-02-01T06:31:27;5.70;99.90
39825;DHT22;25503;52.532;13.640;2023-02-01T06:33:52;5.70;99.90
39825;DHT22;25503;52.532;13.640;2023-02-01T06:36:19;5.60;99.90
39825;DHT22;25503;52.532;13.640;2023-02-01T06:38:47;5.60;99.90
39825;DHT22;25503;52.532;13.640;2023-02-01T06:41:13;5.50;99.90
39825;DHT22;25503;52.532;13.640;2023-02-01T06:43:39;5.50;99.90
39825;DHT22;25503;52.532;13.640;2023-02-01T06:46:07;5.50;99.90
39825;DHT22;25503;52.532;13.640;2023-02-01T06:48:33;5.40;99.90
39825;DHT22;25503;52.532;13.640;2023-02-01T06:50:59;5.40;99.90
39825;DHT22;25503;52.532;13.640;2023-02-01T06:53:25;5.30;99.90
39825;DHT22;25503;52.532;13.640;2023-02-01T06:55:52;5.30;99.90
39825;DHT22;25503;52.532;13.640;2023-02-01T06:58:18;5.30;99.90
39825;DHT22;25503;52.532;13.640;2023-02-01T07:00:44;5.20;99.90
39825;DHT22;25503;52.532;13.640;2023-02-01T07:03:09;5.20;99.90
39825;DHT22;25503;52.532;13.640;2023-02-01T07:05:35;5.20;99.90
39825;DHT22;25503;52.532;13.640;2023-02-01T07:08:01;5.20;99.90
39825;DHT22;25503;52.532;13.640;2023-02-01T07:10:26;5.20;99.90
39825;DHT22;25503;52.532;13.640;2023-02-01T07:12:52;5.10;99.90
39825;DHT22;25503;52.532;13.640;2023-02-01T07:15:21;5.10;99.90
39825;DHT22;25503;52.532;13.640;2023-02-01T07:17:46;5.10;99.90
39825;DHT22;25503;52.532;13.640;2023-02-01T07:20:12;5.10;99.90
39825;DHT22;25503;52.532;13.640;2023-02-01T07:22:38;5.10;99.90
39825;DHT22;25503;52.532;13.640;2023-02-01T07:25:04;5.10;99.90
39825;DHT22;25503;52.532;13.640;2023-02-01T07:27:33;5.10;99.90
39825;DHT22;25503;52.532;13.640;2023-02-01T07:29:58;5.10;99.90
39825;DHT22;25503;52.532;13.640;2023-02-01T07:32:27;5.10;99.90
39825;DHT22;25503;52.532;13.640;2023-02-01T07:34:53;5.10;99.90
39825;DHT22;25503;52.532;13.640;2023-02-01T07:37:18;5.10;99.90
39825;DHT22;25503;52.532;13.640;2023-02-01T07:39:44;5.10;99.90
39825;DHT22;25503;52.532;13.640;2023-02-01T07:42:09;5.10;99.90
39825;DHT22;25503;52.532;13.640;2023-02-01T07:44:35;5.10;99.90
39825;DHT22;25503;52.532;13.640;2023-02-01T07:47:01;5.10;99.90
39825;DHT22;25503;52.532;13.640;2023-02-01T07:49:26;5.20;99.90
39825;DHT22;25503;52.532;13.640;2023-02-01T07:51:52;5.20;99.90
39825;DHT22;25503;52.532;13.640;2023-02-01T07:54:17;5.20;99.90
39825;DHT22;25503;52.532;13.640;2023-02-01T07:56:43;5.20;99.90
39825;DHT22;25503;52.532;13.640;2023-02-01T07:59:09;5.30;99.90
39825;DHT22;25503;52.532;13.640;2023-02-01T08:01:34;5.30;99.90
39825;DHT22;25503;52.532;13.640;2023-02-01T08:04:02;5.30;99.90
39825;DHT22;25503;52.532;13.640;2023-02-01T08:06:30;5.20;99.90
39825;DHT22;25503;52.532;13.640;2023-02-01T08:08:56;5.20;99.90
39825;DHT22;25503;52.532;13.640;2023-02-01T08:11:23;5.20;99.90
39825;DHT22;25503;52.532;13.640;2023-02-01T08:13:49;5.10;99.90
39825;DHT22;25503;52.532;13.640;2023-02-01T08:16:17;5.10;99.90
39825;DHT22;25503;52.532;13.640;2023-02-01T08:18:43;5.00;99.90
39825;DHT22;25503;52.532;13.640;2023-02-01T08:21:15;4.90;99.90
39825;DHT22;25503;52.532;13.640;2023-02-01T08:23:42;4.90;99.90
39825;DHT22;25503;52.532;13.640;2023-02-01T08:26:34;4.80;99.90
39825;DHT22;25503;52.532;13.640;2023-02-01T08:29:03;4.70;99.90
39825;DHT22;25503;52.532;13.640;2023-02-01T08:31:30;4.70;99.90
39825;DHT22;25503;52.532;13.640;2023-02-01T08:33:58;4.60;99.90
39825;DHT22;25503;52.532;13.640;2023-02-01T08:36:25;4.50;99.90
39825;DHT22;25503;52.532;13.640;2023-02-01T08:38:51;4.50;99.90
39825;DHT22;25503;52.532;13.640;2023-02-01T08:41:20;4.40;99.90
39825;DHT22;25503;52.532;13.640;2023-02-01T08:43:46;4.40;99.90
39825;DHT22;25503;52.532;13.640;2023-02-01T08:46:12;4.40;99.90
39825;DHT22;25503;52.532;13.640;2023-02-01T08:48:38;4.30;99.90
39825;DHT22;25503;52.532;13.640;2023-02-01T08:51:10;4.30;99.90
39825;DHT22;25503;52.532;13.640;2023-02-01T08:53:37;4.30;99.90
39825;DHT22;25503;52.532;13.640;2023-02-01T08:56:03;4.30;99.90
39825;DHT22;25503;52.532;13.640;2023-02-01T08:58:29;4.30;99.90
39825;DHT22;25503;52.532;13.640;2023-02-01T09:00:55;4.20;99.90
39825;DHT22;25503;52.532;13.640;2023-02-01T09:03:21;4.20;99.90
39825;DHT22;25503;52.532;13.640;2023-02-01T09:05:47;4.20;99.90
39825;DHT22;25503;52.532;13.640;2023-02-01T09:08:13;4.20;99.90
39825;DHT22;25503;52.532;13.640;2023-02-01T09:10:40;4.20;99.90
39825;DHT22;25503;52.532;13.640;2023-02-01T09:13:06;4.20;99.90
39825;DHT22;25503;52.532;13.640;2023-02-01T09:15:33;4.30;99.90
39825;DHT22;25503;52.532;13.640;2023-02-01T09:17:58;4.20;99.90
39825;DHT22;25503;52.532;13.640;2023-02-01T09:20:24;4.20;99.90
39825;DHT22;25503;52.532;13.640;2023-02-01T09:22:51;4.30;99.90
39825;DHT22;25503;52.532;13.640;2023-02-01T09:25:17;4.30;99.90
39825;DHT22;25503;52.532;13.640;2023-02-01T09:27:43;4.30;99.90
39825;DHT22;25503;52.532;13.640;2023-02-01T09:30:09;4.30;99.90
39825;DHT22;25503;52.532;13.640;2023-02-01T09:32:35;4.40;99.90
39825;DHT22;25503;52.532;13.640;2023-02-01T09:35:01;4.40;99.90
39825;DHT22;25503;52.532;13.640;2023-02-01T09:37:27;4.50;99.90
39825;DHT22;25503;52.532;13.640;2023-02-01T09:39:52;4.50;99.90
39825;DHT22;25503;52.532;13.640;2023-02-01T09:42:50;4.60;99.90
39825;DHT22;25503;52.532;13.640;2023-02-01T09:45:30;4.70;99.90
39825;DHT22;25503;52.532;13.640;2023-02-01T09:47:57;4.70;99.90
39825;DHT22;25503;52.532;13.640;2023-02-01T09:50:36;4.70;99.90
39825;DHT22;25503;52.532;13.640;2023-02-01T09:53:25;4.70;99.90
39825;DHT22;25503;52.532;13.640;2023-02-01T09:55:57;4.70;99.90
39825;DHT22;25503;52.532;13.640;2023-02-01T09:58:47;4.70;99.90
39825;DHT22;25503;52.532;13.640;2023-02-01T10:01:22;4.80;99.90
39825;DHT22;25503;52.532;13.640;2023-02-01T10:03:49;4.80;99.90
39825;DHT22;25503;52.532;13.640;2023-02-01T10:06:30;4.80;99.90
39825;DHT22;25503;52.532;13.640;2023-02-01T10:12:30;4.90;99.90
39825;DHT22;25503;52.532;13.640;2023-02-01T10:14:59;4.90;99.90
39825;DHT22;25503;52.532;13.640;2023-02-01T10:20:45;5.00;99.90
39825;DHT22;25503;52.532;13.640;2023-02-01T10:23:29;5.00;99.90
39825;DHT22;25503;52.532;13.640;2023-02-01T10:26:21;5.00;99.90
39825;DHT22;25503;52.532;13.640;2023-02-01T10:28:53;5.00;99.90
39825;DHT22;25503;52.532;13.640;2023-02-01T10:31:23;5.00;99.90
39825;DHT22;25503;52.532;13.640;2023-02-01T10:34:01;5.00;99.90
39825;DHT22;25503;52.532;13.640;2023-02-01T10:36:39;5.00;99.90
39825;DHT22;25503;52.532;13.640;2023-02-01T10:39:06;5.00;99.90
39825;DHT22;25503;52.532;13.640;2023-02-01T10:41:36;5.00;99.90
39825;DHT22;25503;52.532;13.640;2023-02-01T10:44:10;5.00;99.90
39825;DHT22;25503;52.532;13.640;2023-02-01T10:46:36;5.00;99.90
39825;DHT22;25503;52.532;13.640;2023-02-01T10:49:03;5.00;99.90
39825;DHT22;25503;52.532;13.640;2023-02-01T10:51:42;5.00;99.90
39825;DHT22;25503;52.532;13.640;2023-02-01T10:54:19;5.10;99.90
39825;DHT22;25503;52.532;13.640;2023-02-01T10:56:46;5.30;99.90
39825;DHT22;25503;52.532;13.640;2023-02-01T10:59:21;5.40;99.90
39825;DHT22;25503;52.532;13.640;2023-02-01T11:01:49;5.40;99.90
39825;DHT22;25503;52.532;13.640;2023-02-01T11:04:16;5.50;99.90
39825;DHT22;25503;52.532;13.640;2023-02-01T11:06:44;5.40;99.90
39825;DHT22;25503;52.532;13.640;2023-02-01T11:09:19;5.40;99.90
39825;DHT22;25503;52.532;13.640;2023-02-01T11:14:16;5.30;99.90
39825;DHT22;25503;52.532;13.640;2023-02-01T11:16:47;5.30;99.90
39825;DHT22;25503;52.532;13.640;2023-02-01T11:19:16;5.30;99.90
39825;DHT22;25503;52.532;13.640;2023-02-01T11:21:43;5.40;99.90
39825;DHT22;25503;52.532;13.640;2023-02-01T11:24:34;5.50;99.90
39825;DHT22;25503;52.532;13.640;2023-02-01T11:27:03;5.70;99.90
39825;DHT22;25503;52.532;13.640;2023-02-01T11:29:41;5.70;99.90
39825;DHT22;25503;52.532;13.640;2023-02-01T11:32:08;5.80;99.90
39825;DHT22;25503;52.532;13.640;2023-02-01T11:34:49;5.70;99.90
39825;DHT22;25503;52.532;13.640;2023-02-01T11:37:29;5.70;99.90
39825;DHT22;25503;52.532;13.640;2023-02-01T11:39:58;5.80;99.90
39825;DHT22;25503;52.532;13.640;2023-02-01T11:42:25;5.80;99.90
39825;DHT22;25503;52.532;13.640;2023-02-01T11:44:51;5.90;99.90
39825;DHT22;25503;52.532;13.640;2023-02-01T11:47:41;6.10;99.90
39825;DHT22;25503;52.532;13.640;2023-02-01T11:50:17;6.10;99.90
39825;DHT22;25503;52.532;13.640;2023-02-01T11:55:37;6.20;99.90
39825;DHT22;25503;52.532;13.640;2023-02-01T11:58:22;6.20;99.90
39825;DHT22;25503;52.532;13.640;2023-02-01T12:01:07;6.20;99.90
39825;DHT22;25503;52.532;13.640;2023-02-01T12:23:02;6.40;99.90
39825;DHT22;25503;52.532;13.640;2023-02-01T12:26:03;6.50;99.90
39825;DHT22;25503;52.532;13.640;2023-02-01T12:28:42;6.60;99.90
39825;DHT22;25503;52.532;13.640;2023-02-01T12:37:18;6.70;99.90
39825;DHT22;25503;52.532;13.640;2023-02-01T12:43:04;6.70;99.90
39825;DHT22;25503;52.532;13.640;2023-02-01T12:48:04;6.70;99.90
39825;DHT22;25503;52.532;13.640;2023-02-01T12:50:46;6.60;99.90
39825;DHT22;25503;52.532;13.640;2023-02-01T12:53:45;6.60;99.90
39825;DHT22;25503;52.532;13.640;2023-02-01T12:56:20;6.60;99.90
39825;DHT22;25503;52.532;13.640;2023-02-01T12:58:49;6.50;99.90
39825;DHT22;25503;52.532;13.640;2023-02-01T13:04:08;6.40;99.90
39825;DHT22;25503;52.532;13.640;2023-02-01T13:06:45;6.30;99.90
39825;DHT22;25503;52.532;13.640;2023-02-01T13:11:55;6.20;99.90
39825;DHT22;25503;52.532;13.640;2023-02-01T13:14:33;6.10;99.90
39825;DHT22;25503;52.532;13.640;2023-02-01T13:17:16;5.80;99.90
39825;DHT22;25503;52.532;13.640;2023-02-01T13:19:52;5.40;99.90
39825;DHT22;25503;52.532;13.640;2023-02-01T13:25:13;4.60;99.90
39825;DHT22;25503;52.532;13.640;2023-02-01T13:27:39;4.10;99.90
39825;DHT22;25503;52.532;13.640;2023-02-01T13:30:17;3.70;99.90
39825;DHT22;25503;52.532;13.640;2023-02-01T13:41:27;3.10;99.90
39825;DHT22;25503;52.532;13.640;2023-02-01T13:44:01;3.10;99.90
39825;DHT22;25503;52.532;13.640;2023-02-01T13:46:29;3.10;99.90
39825;DHT22;25503;52.532;13.640;2023-02-01T13:48:58;3.10;99.90
39825;DHT22;25503;52.532;13.640;2023-02-01T13:51:40;3.10;99.90
39825;DHT22;25503;52.532;13.640;2023-02-01T13:54:07;3.20;99.90
39825;DHT22;25503;52.532;13.640;2023-02-01T13:56:48;3.20;99.90
39825;DHT22;25503;52.532;13.640;2023-02-01T14:02:46;3.40;99.90
39825;DHT22;25503;52.532;13.640;2023-02-01T14:05:10;3.50;99.90
39825;DHT22;25503;52.532;13.640;2023-02-01T14:07:36;3.70;99.90
39825;DHT22;25503;52.532;13.640;2023-02-01T14:13:57;4.10;99.90
39825;DHT22;25503;52.532;13.640;2023-02-01T14:24:04;4.80;99.90
39825;DHT22;25503;52.532;13.640;2023-02-01T14:29:24;5.00;99.90
39825;DHT22;25503;52.532;13.640;2023-02-01T14:44:40;5.20;99.90
39825;DHT22;25503;52.532;13.640;2023-02-01T14:47:25;5.20;99.90
39825;DHT22;25503;52.532;13.640;2023-02-01T14:49:58;5.20;99.90
39825;DHT22;25503;52.532;13.640;2023-02-01T14:52:37;5.20;99.90
39825;DHT22;25503;52.532;13.640;2023-02-01T14:55:13;5.20;99.90
39825;DHT22;25503;52.532;13.640;2023-02-01T14:57:43;5.20;99.90
39825;DHT22;25503;52.532;13.640;2023-02-01T15:00:23;5.30;99.90
39825;DHT22;25503;52.532;13.640;2023-02-01T15:02:50;5.30;99.90
39825;DHT22;25503;52.532;13.640;2023-02-01T15:05:31;5.30;99.90
39825;DHT22;25503;52.532;13.640;2023-02-01T15:08:19;5.40;99.90
39825;DHT22;25503;52.532;13.640;2023-02-01T15:10:48;5.40;99.90
39825;DHT22;25503;52.532;13.640;2023-02-01T15:13:27;5.50;99.90
39825;DHT22;25503;52.532;13.640;2023-02-01T15:16:14;5.50;99.90
39825;DHT22;25503;52.532;13.640;2023-02-01T15:18:41;5.60;99.90
39825;DHT22;25503;52.532;13.640;2023-02-01T15:21:41;5.60;99.90
39825;DHT22;25503;52.532;13.640;2023-02-01T15:24:20;5.70;99.90
39825;DHT22;25503;52.532;13.640;2023-02-01T15:26:46;5.80;99.90
39825;DHT22;25503;52.532;13.640;2023-02-01T15:29:13;5.90;99.90
39825;DHT22;25503;52.532;13.640;2023-02-01T15:31:42;5.80;99.90
39825;DHT22;25503;52.532;13.640;2023-02-01T15:34:10;5.70;99.90
39825;DHT22;25503;52.532;13.640;2023-02-01T15:36:36;5.60;99.90
39825;DHT22;25503;52.532;13.640;2023-02-01T15:41:48;5.40;99.90
39825;DHT22;25503;52.532;13.640;2023-02-01T15:44:28;5.40;99.90
39825;DHT22;25503;52.532;13.640;2023-02-01T15:46:54;5.30;99.90
39825;DHT22;25503;52.532;13.640;2023-02-01T15:51:52;5.20;99.90
39825;DHT22;25503;52.532;13.640;2023-02-01T15:54:24;5.10;99.90
39825;DHT22;25503;52.532;13.640;2023-02-01T15:56:55;5.00;99.90
39825;DHT22;25503;52.532;13.640;2023-02-01T15:59:24;5.00;99.90
39825;DHT22;25503;52.532;13.640;2023-02-01T16:01:51;4.90;99.90
39825;DHT22;25503;52.532;13.640;2023-02-01T16:06:58;4.80;99.90
39825;DHT22;25503;52.532;13.640;2023-02-01T16:09:53;4.70;99.90
39825;DHT22;25503;52.532;13.640;2023-02-01T16:12:29;4.60;99.90
39825;DHT22;25503;52.532;13.640;2023-02-01T16:14:55;4.50;99.90
39825;DHT22;25503;52.532;13.640;2023-02-01T16:17:21;4.40;99.90
39825;DHT22;25503;52.532;13.640;2023-02-01T16:19:46;4.20;99.90
39825;DHT22;25503;52.532;13.640;2023-02-01T16:22:12;4.00;99.90
39825;DHT22;25503;52.532;13.640;2023-02-01T16:24:37;3.80;99.90
39825;DHT22;25503;52.532;13.640;2023-02-01T16:27:03;3.70;99.90
39825;DHT22;25503;52.532;13.640;2023-02-01T16:29:30;3.60;99.90
39825;DHT22;25503;52.532;13.640;2023-02-01T16:31:56;3.50;99.90
39825;DHT22;25503;52.532;13.640;2023-02-01T16:34:21;3.40;99.90
39825;DHT22;25503;52.532;13.640;2023-02-01T16:36:48;3.40;99.90
39825;DHT22;25503;52.532;13.640;2023-02-01T16:39:19;3.40;99.90
39825;DHT22;25503;52.532;13.640;2023-02-01T16:41:44;3.40;99.90
39825;DHT22;25503;52.532;13.640;2023-02-01T16:44:13;3.40;99.90
39825;DHT22;25503;52.532;13.640;2023-02-01T16:46:41;3.50;99.90
39825;DHT22;25503;52.532;13.640;2023-02-01T16:49:20;3.50;99.90
39825;DHT22;25503;52.532;13.640;2023-02-01T16:51:48;3.50;99.90
39825;DHT22;25503;52.532;13.640;2023-02-01T16:54:14;3.50;99.90
39825;DHT22;25503;52.532;13.640;2023-02-01T16:56:41;3.50;99.90
39825;DHT22;25503;52.532;13.640;2023-02-01T16:59:07;3.50;99.90
39825;DHT22;25503;52.532;13.640;2023-02-01T17:01:34;3.50;99.90
39825;DHT22;25503;52.532;13.640;2023-02-01T17:04:01;3.50;99.90
39825;DHT22;25503;52.532;13.640;2023-02-01T17:06:28;3.60;99.90
39825;DHT22;25503;52.532;13.640;2023-02-01T17:08:56;3.50;99.90
39825;DHT22;25503;52.532;13.640;2023-02-01T17:11:26;3.50;99.90
39825;DHT22;25503;52.532;13.640;2023-02-01T17:13:52;3.50;99.90
39825;DHT22;25503;52.532;13.640;2023-02-01T17:18:45;3.60;99.90
39825;DHT22;25503;52.532;13.640;2023-02-01T17:21:12;3.60;99.90
39825;DHT22;25503;52.532;13.640;2023-02-01T17:23:37;3.60;99.90
39825;DHT22;25503;52.532;13.640;2023-02-01T17:26:03;3.60;99.90
39825;DHT22;25503;52.532;13.640;2023-02-01T17:28:29;3.60;99.90
39825;DHT22;25503;52.532;13.640;2023-02-01T17:30:55;3.70;99.90
39825;DHT22;25503;52.532;13.640;2023-02-01T17:33:23;3.70;99.90
39825;DHT22;25503;52.532;13.640;2023-02-01T17:35:53;3.70;99.90
39825;DHT22;25503;52.532;13.640;2023-02-01T17:38:19;3.70;99.90
39825;DHT22;25503;52.532;13.640;2023-02-01T17:40:44;3.70;99.90
39825;DHT22;25503;52.532;13.640;2023-02-01T17:43:15;3.70;99.90
39825;DHT22;25503;52.532;13.640;2023-02-01T17:46:12;3.80;99.90
39825;DHT22;25503;52.532;13.640;2023-02-01T17:48:39;3.80;99.90
39825;DHT22;25503;52.532;13.640;2023-02-01T17:51:30;3.80;99.90
39825;DHT22;25503;52.532;13.640;2023-02-01T17:53:55;3.80;99.90
39825;DHT22;25503;52.532;13.640;2023-02-01T17:56:24;3.80;99.90
39825;DHT22;25503;52.532;13.640;2023-02-01T17:58:50;3.90;99.90
39825;DHT22;25503;52.532;13.640;2023-02-01T18:01:21;3.90;99.90